sensor_id;sensor_type;location;lat;lon;timestamp;P1;durP1;ratioP1;P2;durP2;ratioP2
4696;SDS011;2362;50.780;0.292;2023-04-07T00:01:22;11.07;;;2.53;;
4696;SDS011;2362;50.780;0.292;2023-04-07T00:03:48;12.18;;;2.50;;
4696;SDS011;2362;50.780;0.292;2023-04-07T00:06:13;8.15;;;2.25;;
4696;SDS011;2362;50.780;0.292;2023-04-07T00:08:39;15.80;;;3.63;;
4696;SDS011;2362;50.780;0.292;2023-04-07T00:11:05;20.63;;;3.38;;
4696;SDS011;2362;50.780;0.292;2023-04-07T00:13:32;16.48;;;2.42;;
4696;SDS011;2362;50.780;0.292;2023-04-07T00:15:58;8.40;;;1.88;;
4696;SDS011;2362;50.780;0.292;2023-04-07T00:18:24;16.25;;;3.40;;
4696;SDS011;2362;50.780;0.292;2023-04-07T00:20:50;7.03;;;2.10;;
4696;SDS011;2362;50.780;0.292;2023-04-07T00:23:15;8.63;;;2.13;;
4696;SDS011;2362;50.780;0.292;2023-04-07T00:25:41;13.82;;;2.60;;
4696;SDS011;2362;50.780;0.292;2023-04-07T00:28:07;11.10;;;3.08;;
4696;SDS011;2362;50.780;0.292;2023-04-07T00:30:32;10.20;;;2.85;;
4696;SDS011;2362;50.780;0.292;2023-04-07T00:32:58;9.27;;;2.85;;
4696;SDS011;2362;50.780;0.292;2023-04-07T00:35:23;8.18;;;2.20;;
4696;SDS011;2362;50.780;0.292;2023-04-07T00:37:49;8.02;;;1.70;;
4696;SDS011;2362;50.780;0.292;2023-04-07T00:40:15;9.80;;;2.22;;
4696;SDS011;2362;50.780;0.292;2023-04-07T00:42:41;8.60;;;2.17;;
4696;SDS011;2362;50.780;0.292;2023-04-07T00:45:32;14.38;;;2.28;;
4696;SDS011;2362;50.780;0.292;2023-04-07T00:48:23;9.45;;;1.98;;
4696;SDS011;2362;50.780;0.292;2023-04-07T00:50:50;14.45;;;3.25;;
4696;SDS011;2362;50.780;0.292;2023-04-07T00:53:16;11.63;;;2.40;;
4696;SDS011;2362;50.780;0.292;2023-04-07T00:55:42;4.53;;;1.70;;
4696;SDS011;2362;50.780;0.292;2023-04-07T00:58:07;21.92;;;2.35;;
4696;SDS011;2362;50.780;0.292;2023-04-07T01:00:34;11.85;;;2.50;;
4696;SDS011;2362;50.780;0.292;2023-04-07T01:03:09;13.15;;;3.03;;
4696;SDS011;2362;50.780;0.292;2023-04-07T01:08:20;20.83;;;3.10;;
4696;SDS011;2362;50.780;0.292;2023-04-07T01:13:50;18.75;;;3.00;;
4696;SDS011;2362;50.780;0.292;2023-04-07T01:16:30;12.73;;;3.50;;
4696;SDS011;2362;50.780;0.292;2023-04-07T01:19:21;14.32;;;2.22;;
4696;SDS011;2362;50.780;0.292;2023-04-07T01:22:10;7.57;;;2.45;;
4696;SDS011;2362;50.780;0.292;2023-04-07T01:29:56;10.57;;;2.40;;
4696;SDS011;2362;50.780;0.292;2023-04-07T01:32:25;8.10;;;2.38;;
4696;SDS011;2362;50.780;0.292;2023-04-07T01:34:52;13.68;;;2.75;;
4696;SDS011;2362;50.780;0.292;2023-04-07T01:37:20;13.25;;;2.67;;
4696;SDS011;2362;50.780;0.292;2023-04-07T01:39:46;14.88;;;2.65;;
4696;SDS011;2362;50.780;0.292;2023-04-07T01:42:12;15.00;;;2.40;;
4696;SDS011;2362;50.780;0.292;2023-04-07T01:44:40;12.90;;;2.50;;
4696;SDS011;2362;50.780;0.292;2023-04-07T01:47:06;9.10;;;3.33;;
4696;SDS011;2362;50.780;0.292;2023-04-07T01:49:32;20.52;;;2.83;;
4696;SDS011;2362;50.780;0.292;2023-04-07T01:52:00;6.15;;;2.55;;
4696;SDS011;2362;50.780;0.292;2023-04-07T01:54:27;11.35;;;2.80;;
4696;SDS011;2362;50.780;0.292;2023-04-07T01:56:53;10.63;;;2.97;;
4696;SDS011;2362;50.780;0.292;2023-04-07T01:59:18;15.82;;;2.55;;
4696;SDS011;2362;50.780;0.292;2023-04-07T02:01:44;4.18;;;1.55;;
4696;SDS011;2362;50.780;0.292;2023-04-07T02:04:11;21.17;;;3.38;;
4696;SDS011;2362;50.780;0.292;2023-04-07T02:06:43;17.80;;;3.03;;
4696;SDS011;2362;50.780;0.292;2023-04-07T02:09:16;18.48;;;3.58;;
4696;SDS011;2362;50.780;0.292;2023-04-07T02:11:44;11.85;;;2.90;;
4696;SDS011;2362;50.780;0.292;2023-04-07T02:14:10;10.45;;;2.28;;
4696;SDS011;2362;50.780;0.292;2023-04-07T02:16:37;11.07;;;2.38;;
4696;SDS011;2362;50.780;0.292;2023-04-07T02:19:05;22.77;;;2.75;;
4696;SDS011;2362;50.780;0.292;2023-04-07T02:21:32;17.33;;;2.75;;
4696;SDS011;2362;50.780;0.292;2023-04-07T02:24:05;8.38;;;1.75;;
4696;SDS011;2362;50.780;0.292;2023-04-07T02:26:56;15.32;;;2.70;;
4696;SDS011;2362;50.780;0.292;2023-04-07T02:29:47;16.38;;;3.05;;
4696;SDS011;2362;50.780;0.292;2023-04-07T02:32:38;16.73;;;3.35;;
4696;SDS011;2362;50.780;0.292;2023-04-07T02:35:07;17.10;;;3.10;;
4696;SDS011;2362;50.780;0.292;2023-04-07T02:37:34;17.98;;;2.80;;
4696;SDS011;2362;50.780;0.292;2023-04-07T02:39:59;16.75;;;2.53;;
4696;SDS011;2362;50.780;0.292;2023-04-07T02:42:25;15.38;;;2.80;;
4696;SDS011;2362;50.780;0.292;2023-04-07T02:44:51;10.00;;;2.30;;
4696;SDS011;2362;50.780;0.292;2023-04-07T02:47:16;15.35;;;2.40;;
4696;SDS011;2362;50.780;0.292;2023-04-07T02:49:42;10.52;;;2.80;;
4696;SDS011;2362;50.780;0.292;2023-04-07T02:52:08;12.10;;;3.03;;
4696;SDS011;2362;50.780;0.292;2023-04-07T02:54:33;15.90;;;2.40;;
4696;SDS011;2362;50.780;0.292;2023-04-07T02:56:59;12.55;;;2.30;;
4696;SDS011;2362;50.780;0.292;2023-04-07T02:59:25;18.67;;;4.15;;
4696;SDS011;2362;50.780;0.292;2023-04-07T03:01:51;12.38;;;3.30;;
4696;SDS011;2362;50.780;0.292;2023-04-07T03:04:16;22.80;;;3.00;;
4696;SDS011;2362;50.780;0.292;2023-04-07T03:07:07;8.60;;;2.30;;
4696;SDS011;2362;50.780;0.292;2023-04-07T03:09:33;13.68;;;2.83;;
4696;SDS011;2362;50.780;0.292;2023-04-07T03:11:59;10.75;;;2.47;;
4696;SDS011;2362;50.780;0.292;2023-04-07T03:14:26;19.60;;;2.90;;
4696;SDS011;2362;50.780;0.292;2023-04-07T03:16:52;10.30;;;2.30;;
4696;SDS011;2362;50.780;0.292;2023-04-07T03:19:17;9.63;;;2.47;;
4696;SDS011;2362;50.780;0.292;2023-04-07T03:21:43;12.80;;;2.63;;
4696;SDS011;2362;50.780;0.292;2023-04-07T03:24:08;14.13;;;2.22;;
4696;SDS011;2362;50.780;0.292;2023-04-07T03:26:34;13.10;;;2.05;;
4696;SDS011;2362;50.780;0.292;2023-04-07T03:29:00;15.82;;;2.45;;
4696;SDS011;2362;50.780;0.292;2023-04-07T03:31:25;14.73;;;2.33;;
4696;SDS011;2362;50.780;0.292;2023-04-07T03:33:51;15.88;;;2.13;;
4696;SDS011;2362;50.780;0.292;2023-04-07T03:36:17;11.32;;;2.13;;
4696;SDS011;2362;50.780;0.292;2023-04-07T03:38:43;7.18;;;2.30;;
4696;SDS011;2362;50.780;0.292;2023-04-07T03:41:13;15.20;;;3.35;;
4696;SDS011;2362;50.780;0.292;2023-04-07T03:43:38;9.73;;;1.95;;
4696;SDS011;2362;50.780;0.292;2023-04-07T03:46:04;6.97;;;1.67;;
4696;SDS011;2362;50.780;0.292;2023-04-07T03:48:30;18.02;;;3.38;;
4696;SDS011;2362;50.780;0.292;2023-04-07T03:50:55;14.82;;;2.25;;
4696;SDS011;2362;50.780;0.292;2023-04-07T03:53:21;15.65;;;2.25;;
4696;SDS011;2362;50.780;0.292;2023-04-07T03:55:47;11.65;;;1.75;;
4696;SDS011;2362;50.780;0.292;2023-04-07T03:58:12;6.53;;;1.98;;
4696;SDS011;2362;50.780;0.292;2023-04-07T04:00:38;13.10;;;2.00;;
4696;SDS011;2362;50.780;0.292;2023-04-07T04:03:04;14.05;;;2.40;;
4696;SDS011;2362;50.780;0.292;2023-04-07T04:05:30;19.83;;;2.92;;
4696;SDS011;2362;50.780;0.292;2023-04-07T04:07:56;15.27;;;3.05;;
4696;SDS011;2362;50.780;0.292;2023-04-07T04:10:24;6.55;;;1.85;;
4696;SDS011;2362;50.780;0.292;2023-04-07T04:12:51;19.75;;;2.45;;
4696;SDS011;2362;50.780;0.292;2023-04-07T04:15:17;17.65;;;2.35;;
4696;SDS011;2362;50.780;0.292;2023-04-07T04:17:42;15.75;;;3.03;;
4696;SDS011;2362;50.780;0.292;2023-04-07T04:20:08;8.13;;;1.95;;
4696;SDS011;2362;50.780;0.292;2023-04-07T04:22:34;20.40;;;2.70;;
4696;SDS011;2362;50.780;0.292;2023-04-07T04:25:00;11.88;;;1.98;;
4696;SDS011;2362;50.780;0.292;2023-04-07T04:27:26;11.80;;;2.80;;
4696;SDS011;2362;50.780;0.292;2023-04-07T04:29:52;13.18;;;2.90;;
4696;SDS011;2362;50.780;0.292;2023-04-07T04:32:18;12.50;;;2.42;;
4696;SDS011;2362;50.780;0.292;2023-04-07T04:34:44;14.40;;;2.47;;
4696;SDS011;2362;50.780;0.292;2023-04-07T04:37:10;13.68;;;2.45;;
4696;SDS011;2362;50.780;0.292;2023-04-07T04:39:35;11.00;;;2.38;;
4696;SDS011;2362;50.780;0.292;2023-04-07T04:42:01;26.85;;;2.63;;
4696;SDS011;2362;50.780;0.292;2023-04-07T04:44:27;10.98;;;2.53;;
4696;SDS011;2362;50.780;0.292;2023-04-07T04:46:54;15.45;;;3.67;;
4696;SDS011;2362;50.780;0.292;2023-04-07T04:49:20;15.77;;;2.42;;
4696;SDS011;2362;50.780;0.292;2023-04-07T04:51:46;18.17;;;2.45;;
4696;SDS011;2362;50.780;0.292;2023-04-07T04:54:12;17.00;;;2.60;;
4696;SDS011;2362;50.780;0.292;2023-04-07T04:56:38;19.15;;;2.20;;
4696;SDS011;2362;50.780;0.292;2023-04-07T04:59:03;21.02;;;2.83;;
4696;SDS011;2362;50.780;0.292;2023-04-07T05:01:29;13.15;;;2.30;;
4696;SDS011;2362;50.780;0.292;2023-04-07T05:03:57;15.80;;;2.10;;
4696;SDS011;2362;50.780;0.292;2023-04-07T05:06:22;16.20;;;4.15;;
4696;SDS011;2362;50.780;0.292;2023-04-07T05:08:48;15.13;;;2.33;;
4696;SDS011;2362;50.780;0.292;2023-04-07T05:11:13;17.40;;;2.47;;
4696;SDS011;2362;50.780;0.292;2023-04-07T05:13:40;17.08;;;3.38;;
4696;SDS011;2362;50.780;0.292;2023-04-07T05:16:06;13.65;;;2.20;;
4696;SDS011;2362;50.780;0.292;2023-04-07T05:18:31;12.27;;;2.97;;
4696;SDS011;2362;50.780;0.292;2023-04-07T05:20:57;6.15;;;2.55;;
4696;SDS011;2362;50.780;0.292;2023-04-07T05:23:23;14.65;;;2.60;;
4696;SDS011;2362;50.780;0.292;2023-04-07T05:25:48;15.80;;;2.47;;
4696;SDS011;2362;50.780;0.292;2023-04-07T05:28:14;25.42;;;3.10;;
4696;SDS011;2362;50.780;0.292;2023-04-07T05:30:40;15.30;;;2.88;;
4696;SDS011;2362;50.780;0.292;2023-04-07T05:33:06;16.05;;;3.03;;
4696;SDS011;2362;50.780;0.292;2023-04-07T05:35:31;13.77;;;3.17;;
4696;SDS011;2362;50.780;0.292;2023-04-07T05:37:57;19.60;;;3.55;;
4696;SDS011;2362;50.780;0.292;2023-04-07T05:40:23;29.38;;;4.85;;
4696;SDS011;2362;50.780;0.292;2023-04-07T05:42:48;20.27;;;3.20;;
4696;SDS011;2362;50.780;0.292;2023-04-07T05:45:14;16.23;;;3.28;;
4696;SDS011;2362;50.780;0.292;2023-04-07T05:47:40;18.17;;;2.78;;
4696;SDS011;2362;50.780;0.292;2023-04-07T05:50:06;8.23;;;2.53;;
4696;SDS011;2362;50.780;0.292;2023-04-07T05:52:32;16.48;;;2.53;;
4696;SDS011;2362;50.780;0.292;2023-04-07T05:54:58;12.93;;;2.75;;
4696;SDS011;2362;50.780;0.292;2023-04-07T05:57:24;11.45;;;2.78;;
4696;SDS011;2362;50.780;0.292;2023-04-07T05:59:52;26.88;;;3.78;;
4696;SDS011;2362;50.780;0.292;2023-04-07T06:02:17;19.98;;;2.58;;
4696;SDS011;2362;50.780;0.292;2023-04-07T06:04:43;25.83;;;5.15;;
4696;SDS011;2362;50.780;0.292;2023-04-07T06:07:08;16.25;;;2.80;;
4696;SDS011;2362;50.780;0.292;2023-04-07T06:09:34;16.17;;;2.85;;
4696;SDS011;2362;50.780;0.292;2023-04-07T06:12:00;17.00;;;2.83;;
4696;SDS011;2362;50.780;0.292;2023-04-07T06:14:29;24.75;;;4.43;;
4696;SDS011;2362;50.780;0.292;2023-04-07T06:16:54;23.10;;;3.38;;
4696;SDS011;2362;50.780;0.292;2023-04-07T06:19:20;8.57;;;2.85;;
4696;SDS011;2362;50.780;0.292;2023-04-07T06:21:46;14.70;;;2.88;;
4696;SDS011;2362;50.780;0.292;2023-04-07T06:24:11;17.95;;;2.92;;
4696;SDS011;2362;50.780;0.292;2023-04-07T06:26:38;16.92;;;3.22;;
4696;SDS011;2362;50.780;0.292;2023-04-07T06:29:04;11.25;;;2.55;;
4696;SDS011;2362;50.780;0.292;2023-04-07T06:31:30;19.35;;;3.08;;
4696;SDS011;2362;50.780;0.292;2023-04-07T06:33:55;12.95;;;2.83;;
4696;SDS011;2362;50.780;0.292;2023-04-07T06:36:21;18.30;;;3.35;;
4696;SDS011;2362;50.780;0.292;2023-04-07T06:38:47;19.77;;;3.05;;
4696;SDS011;2362;50.780;0.292;2023-04-07T06:41:13;13.38;;;3.25;;
4696;SDS011;2362;50.780;0.292;2023-04-07T06:43:41;10.43;;;2.53;;
4696;SDS011;2362;50.780;0.292;2023-04-07T06:46:07;11.63;;;2.80;;
4696;SDS011;2362;50.780;0.292;2023-04-07T06:48:33;15.32;;;3.33;;
4696;SDS011;2362;50.780;0.292;2023-04-07T06:50:59;16.02;;;3.25;;
4696;SDS011;2362;50.780;0.292;2023-04-07T06:53:24;14.13;;;2.95;;
4696;SDS011;2362;50.780;0.292;2023-04-07T06:55:50;13.60;;;2.83;;
4696;SDS011;2362;50.780;0.292;2023-04-07T06:58:16;9.73;;;2.50;;
4696;SDS011;2362;50.780;0.292;2023-04-07T07:00:41;15.50;;;2.95;;
4696;SDS011;2362;50.780;0.292;2023-04-07T07:03:07;29.02;;;4.70;;
4696;SDS011;2362;50.780;0.292;2023-04-07T07:05:33;10.57;;;3.00;;
4696;SDS011;2362;50.780;0.292;2023-04-07T07:07:58;20.35;;;4.00;;
4696;SDS011;2362;50.780;0.292;2023-04-07T07:10:24;23.85;;;4.25;;
4696;SDS011;2362;50.780;0.292;2023-04-07T07:12:50;15.43;;;2.55;;
4696;SDS011;2362;50.780;0.292;2023-04-07T07:15:15;12.68;;;2.72;;
4696;SDS011;2362;50.780;0.292;2023-04-07T07:17:42;12.27;;;2.65;;
4696;SDS011;2362;50.780;0.292;2023-04-07T07:20:08;14.85;;;3.50;;
4696;SDS011;2362;50.780;0.292;2023-04-07T07:22:34;12.27;;;2.97;;
4696;SDS011;2362;50.780;0.292;2023-04-07T07:25:00;22.15;;;3.75;;
4696;SDS011;2362;50.780;0.292;2023-04-07T07:27:25;12.13;;;2.80;;
4696;SDS011;2362;50.780;0.292;2023-04-07T07:29:51;18.92;;;5.53;;
4696;SDS011;2362;50.780;0.292;2023-04-07T07:32:16;14.40;;;3.13;;
4696;SDS011;2362;50.780;0.292;2023-04-07T07:34:42;14.40;;;3.55;;
4696;SDS011;2362;50.780;0.292;2023-04-07T07:37:08;13.40;;;2.80;;
4696;SDS011;2362;50.780;0.292;2023-04-07T07:39:33;14.70;;;3.53;;
4696;SDS011;2362;50.780;0.292;2023-04-07T07:42:03;11.98;;;3.47;;
4696;SDS011;2362;50.780;0.292;2023-04-07T07:44:28;14.90;;;2.95;;
4696;SDS011;2362;50.780;0.292;2023-04-07T07:46:54;14.00;;;2.95;;
4696;SDS011;2362;50.780;0.292;2023-04-07T07:49:19;7.45;;;3.05;;
4696;SDS011;2362;50.780;0.292;2023-04-07T07:51:45;17.73;;;3.42;;
4696;SDS011;2362;50.780;0.292;2023-04-07T07:54:11;17.00;;;3.38;;
4696;SDS011;2362;50.780;0.292;2023-04-07T07:56:37;16.42;;;2.95;;
4696;SDS011;2362;50.780;0.292;2023-04-07T07:59:03;7.55;;;2.63;;
4696;SDS011;2362;50.780;0.292;2023-04-07T08:01:30;14.02;;;3.08;;
4696;SDS011;2362;50.780;0.292;2023-04-07T08:03:56;15.93;;;3.47;;
4696;SDS011;2362;50.780;0.292;2023-04-07T08:06:22;15.35;;;2.75;;
4696;SDS011;2362;50.780;0.292;2023-04-07T08:08:47;11.85;;;2.92;;
4696;SDS011;2362;50.780;0.292;2023-04-07T08:11:14;17.02;;;3.20;;
4696;SDS011;2362;50.780;0.292;2023-04-07T08:13:41;7.72;;;2.88;;
4696;SDS011;2362;50.780;0.292;2023-04-07T08:16:09;20.23;;;3.53;;
4696;SDS011;2362;50.780;0.292;2023-04-07T08:18:35;25.05;;;3.30;;
4696;SDS011;2362;50.780;0.292;2023-04-07T08:21:02;14.52;;;2.88;;
4696;SDS011;2362;50.780;0.292;2023-04-07T08:23:29;11.50;;;2.95;;
4696;SDS011;2362;50.780;0.292;2023-04-07T08:25:55;18.27;;;3.00;;
4696;SDS011;2362;50.780;0.292;2023-04-07T08:28:21;13.02;;;2.55;;
4696;SDS011;2362;50.780;0.292;2023-04-07T08:30:48;9.13;;;1.85;;
4696;SDS011;2362;50.780;0.292;2023-04-07T08:33:13;9.35;;;1.83;;
4696;SDS011;2362;50.780;0.292;2023-04-07T08:35:39;9.35;;;1.65;;
4696;SDS011;2362;50.780;0.292;2023-04-07T08:38:05;7.53;;;2.17;;
4696;SDS011;2362;50.780;0.292;2023-04-07T08:40:32;12.38;;;2.33;;
4696;SDS011;2362;50.780;0.292;2023-04-07T08:42:58;13.98;;;2.30;;
4696;SDS011;2362;50.780;0.292;2023-04-07T08:45:49;10.32;;;1.80;;
4696;SDS011;2362;50.780;0.292;2023-04-07T08:48:17;7.72;;;3.08;;
4696;SDS011;2362;50.780;0.292;2023-04-07T08:50:46;11.77;;;1.85;;
4696;SDS011;2362;50.780;0.292;2023-04-07T08:53:17;15.18;;;1.83;;
4696;SDS011;2362;50.780;0.292;2023-04-07T08:55:56;12.07;;;2.03;;
4696;SDS011;2362;50.780;0.292;2023-04-07T08:58:26;9.25;;;1.73;;
4696;SDS011;2362;50.780;0.292;2023-04-07T09:00:54;12.52;;;1.90;;
4696;SDS011;2362;50.780;0.292;2023-04-07T09:03:20;9.82;;;2.13;;
4696;SDS011;2362;50.780;0.292;2023-04-07T09:05:47;5.78;;;1.45;;
4696;SDS011;2362;50.780;0.292;2023-04-07T09:08:15;7.15;;;1.95;;
4696;SDS011;2362;50.780;0.292;2023-04-07T09:10:40;5.25;;;1.60;;
4696;SDS011;2362;50.780;0.292;2023-04-07T09:13:06;13.60;;;1.67;;
4696;SDS011;2362;50.780;0.292;2023-04-07T09:15:32;6.32;;;1.50;;
4696;SDS011;2362;50.780;0.292;2023-04-07T09:17:58;5.97;;;1.50;;
4696;SDS011;2362;50.780;0.292;2023-04-07T09:25:54;4.35;;;1.50;;
4696;SDS011;2362;50.780;0.292;2023-04-07T09:28:20;6.75;;;1.60;;
4696;SDS011;2362;50.780;0.292;2023-04-07T09:30:53;9.70;;;1.45;;
4696;SDS011;2362;50.780;0.292;2023-04-07T09:33:26;4.43;;;1.13;;
4696;SDS011;2362;50.780;0.292;2023-04-07T09:35:52;7.82;;;1.30;;
4696;SDS011;2362;50.780;0.292;2023-04-07T09:38:18;10.38;;;1.55;;
4696;SDS011;2362;50.780;0.292;2023-04-07T09:40:44;7.07;;;1.73;;
4696;SDS011;2362;50.780;0.292;2023-04-07T09:43:16;7.95;;;1.30;;
4696;SDS011;2362;50.780;0.292;2023-04-07T09:45:43;7.47;;;1.42;;
4696;SDS011;2362;50.780;0.292;2023-04-07T09:48:27;9.02;;;1.30;;
4696;SDS011;2362;50.780;0.292;2023-04-07T09:50:53;8.32;;;1.13;;
4696;SDS011;2362;50.780;0.292;2023-04-07T09:56:10;6.18;;;1.15;;
4696;SDS011;2362;50.780;0.292;2023-04-07T09:58:39;3.67;;;0.70;;
4696;SDS011;2362;50.780;0.292;2023-04-07T10:01:06;7.85;;;1.38;;
4696;SDS011;2362;50.780;0.292;2023-04-07T10:03:32;6.75;;;0.90;;
4696;SDS011;2362;50.780;0.292;2023-04-07T10:05:59;16.90;;;0.82;;
4696;SDS011;2362;50.780;0.292;2023-04-07T10:08:26;3.17;;;0.80;;
4696;SDS011;2362;50.780;0.292;2023-04-07T10:10:53;3.13;;;0.50;;
4696;SDS011;2362;50.780;0.292;2023-04-07T10:13:20;7.65;;;0.77;;
4696;SDS011;2362;50.780;0.292;2023-04-07T10:15:46;4.18;;;0.68;;
4696;SDS011;2362;50.780;0.292;2023-04-07T10:18:13;4.80;;;0.90;;
4696;SDS011;2362;50.780;0.292;2023-04-07T10:20:40;8.43;;;1.27;;
4696;SDS011;2362;50.780;0.292;2023-04-07T10:26:33;10.07;;;1.00;;
4696;SDS011;2362;50.780;0.292;2023-04-07T10:29:05;7.25;;;1.38;;
4696;SDS011;2362;50.780;0.292;2023-04-07T10:31:36;7.22;;;0.93;;
4696;SDS011;2362;50.780;0.292;2023-04-07T10:34:02;6.18;;;0.65;;
4696;SDS011;2362;50.780;0.292;2023-04-07T10:36:28;4.82;;;0.85;;
4696;SDS011;2362;50.780;0.292;2023-04-07T10:43:59;8.18;;;1.13;;
4696;SDS011;2362;50.780;0.292;2023-04-07T10:46:28;3.53;;;0.88;;
4696;SDS011;2362;50.780;0.292;2023-04-07T10:49:11;4.82;;;0.68;;
4696;SDS011;2362;50.780;0.292;2023-04-07T10:51:38;4.65;;;0.95;;
4696;SDS011;2362;50.780;0.292;2023-04-07T10:54:16;3.72;;;0.80;;
4696;SDS011;2362;50.780;0.292;2023-04-07T10:57:06;1.83;;;0.73;;
4696;SDS011;2362;50.780;0.292;2023-04-07T10:59:34;2.00;;;0.68;;
4696;SDS011;2362;50.780;0.292;2023-04-07T11:04:39;5.70;;;1.00;;
4696;SDS011;2362;50.780;0.292;2023-04-07T11:07:10;3.22;;;0.50;;
4696;SDS011;2362;50.780;0.292;2023-04-07T11:09:37;2.92;;;0.70;;
4696;SDS011;2362;50.780;0.292;2023-04-07T11:12:04;2.75;;;0.90;;
4696;SDS011;2362;50.780;0.292;2023-04-07T11:14:30;9.20;;;0.80;;
4696;SDS011;2362;50.780;0.292;2023-04-07T11:16:57;2.72;;;0.82;;
4696;SDS011;2362;50.780;0.292;2023-04-07T11:19:25;6.07;;;0.85;;
4696;SDS011;2362;50.780;0.292;2023-04-07T11:22:11;2.72;;;0.70;;
4696;SDS011;2362;50.780;0.292;2023-04-07T11:24:40;5.72;;;1.23;;
4696;SDS011;2362;50.780;0.292;2023-04-07T11:27:11;4.32;;;0.85;;
4696;SDS011;2362;50.780;0.292;2023-04-07T11:29:37;4.25;;;0.95;;
4696;SDS011;2362;50.780;0.292;2023-04-07T11:32:04;13.35;;;2.28;;
4696;SDS011;2362;50.780;0.292;2023-04-07T11:34:30;21.60;;;3.33;;
4696;SDS011;2362;50.780;0.292;2023-04-07T11:36:57;11.23;;;2.33;;
4696;SDS011;2362;50.780;0.292;2023-04-07T11:39:42;7.55;;;1.33;;
4696;SDS011;2362;50.780;0.292;2023-04-07T11:42:10;4.45;;;1.30;;
4696;SDS011;2362;50.780;0.292;2023-04-07T11:44:43;6.60;;;0.98;;
4696;SDS011;2362;50.780;0.292;2023-04-07T11:47:10;6.28;;;0.90;;
4696;SDS011;2362;50.780;0.292;2023-04-07T11:49:35;5.70;;;0.95;;
4696;SDS011;2362;50.780;0.292;2023-04-07T11:52:09;7.63;;;1.30;;
4696;SDS011;2362;50.780;0.292;2023-04-07T11:54:43;7.10;;;1.42;;
4696;SDS011;2362;50.780;0.292;2023-04-07T11:57:28;4.85;;;0.93;;
4696;SDS011;2362;50.780;0.292;2023-04-07T12:00:06;4.55;;;1.55;;
4696;SDS011;2362;50.780;0.292;2023-04-07T12:02:36;8.10;;;1.55;;
4696;SDS011;2362;50.780;0.292;2023-04-07T12:05:02;4.43;;;1.20;;
4696;SDS011;2362;50.780;0.292;2023-04-07T12:07:29;5.60;;;1.75;;
4696;SDS011;2362;50.780;0.292;2023-04-07T12:09:55;7.03;;;1.88;;
4696;SDS011;2362;50.780;0.292;2023-04-07T12:12:24;4.45;;;1.67;;
4696;SDS011;2362;50.780;0.292;2023-04-07T12:14:54;4.10;;;1.15;;
4696;SDS011;2362;50.780;0.292;2023-04-07T12:17:26;7.47;;;1.30;;
4696;SDS011;2362;50.780;0.292;2023-04-07T12:19:52;4.93;;;1.13;;
4696;SDS011;2362;50.780;0.292;2023-04-07T12:22:18;11.15;;;3.55;;
4696;SDS011;2362;50.780;0.292;2023-04-07T12:24:46;4.35;;;1.40;;
4696;SDS011;2362;50.780;0.292;2023-04-07T12:27:12;5.57;;;1.23;;
4696;SDS011;2362;50.780;0.292;2023-04-07T12:29:37;8.45;;;1.40;;
4696;SDS011;2362;50.780;0.292;2023-04-07T12:32:03;7.60;;;1.55;;
4696;SDS011;2362;50.780;0.292;2023-04-07T12:34:29;8.52;;;1.25;;
4696;SDS011;2362;50.780;0.292;2023-04-07T12:36:55;8.35;;;2.08;;
4696;SDS011;2362;50.780;0.292;2023-04-07T12:39:21;6.88;;;1.65;;
4696;SDS011;2362;50.780;0.292;2023-04-07T12:41:46;8.45;;;1.88;;
4696;SDS011;2362;50.780;0.292;2023-04-07T12:44:17;8.60;;;1.70;;
4696;SDS011;2362;50.780;0.292;2023-04-07T12:46:43;6.13;;;1.42;;
4696;SDS011;2362;50.780;0.292;2023-04-07T12:49:09;8.68;;;2.15;;
4696;SDS011;2362;50.780;0.292;2023-04-07T12:51:35;7.50;;;1.85;;
4696;SDS011;2362;50.780;0.292;2023-04-07T12:54:01;4.25;;;1.10;;
4696;SDS011;2362;50.780;0.292;2023-04-07T12:56:27;4.50;;;1.08;;
4696;SDS011;2362;50.780;0.292;2023-04-07T12:58:53;7.80;;;1.40;;
4696;SDS011;2362;50.780;0.292;2023-04-07T13:01:19;6.55;;;1.55;;
4696;SDS011;2362;50.780;0.292;2023-04-07T13:03:45;6.22;;;1.40;;
4696;SDS011;2362;50.780;0.292;2023-04-07T13:06:11;5.40;;;1.90;;
4696;SDS011;2362;50.780;0.292;2023-04-07T13:08:37;10.63;;;1.65;;
4696;SDS011;2362;50.780;0.292;2023-04-07T13:11:06;7.68;;;1.60;;
4696;SDS011;2362;50.780;0.292;2023-04-07T13:13:31;4.80;;;1.20;;
4696;SDS011;2362;50.780;0.292;2023-04-07T13:15:57;5.60;;;2.05;;
4696;SDS011;2362;50.780;0.292;2023-04-07T13:18:23;9.15;;;2.08;;
4696;SDS011;2362;50.780;0.292;2023-04-07T13:20:49;14.98;;;1.80;;
4696;SDS011;2362;50.780;0.292;2023-04-07T13:23:15;16.73;;;2.47;;
4696;SDS011;2362;50.780;0.292;2023-04-07T13:25:41;5.07;;;2.75;;
4696;SDS011;2362;50.780;0.292;2023-04-07T13:28:07;6.97;;;1.60;;
4696;SDS011;2362;50.780;0.292;2023-04-07T13:30:33;6.55;;;1.98;;
4696;SDS011;2362;50.780;0.292;2023-04-07T13:32:58;3.53;;;1.20;;
4696;SDS011;2362;50.780;0.292;2023-04-07T13:35:24;5.72;;;1.35;;
4696;SDS011;2362;50.780;0.292;2023-04-07T13:37:50;6.47;;;1.42;;
4696;SDS011;2362;50.780;0.292;2023-04-07T13:40:16;6.05;;;1.67;;
4696;SDS011;2362;50.780;0.292;2023-04-07T13:42:41;10.13;;;2.10;;
4696;SDS011;2362;50.780;0.292;2023-04-07T13:45:07;6.70;;;1.30;;
4696;SDS011;2362;50.780;0.292;2023-04-07T13:47:33;8.65;;;1.95;;
4696;SDS011;2362;50.780;0.292;2023-04-07T13:50:02;8.85;;;1.42;;
4696;SDS011;2362;50.780;0.292;2023-04-07T13:52:29;8.65;;;1.77;;
4696;SDS011;2362;50.780;0.292;2023-04-07T13:54:56;5.85;;;1.52;;
4696;SDS011;2362;50.780;0.292;2023-04-07T13:57:22;6.55;;;1.50;;
4696;SDS011;2362;50.780;0.292;2023-04-07T14:00:13;6.38;;;1.85;;
4696;SDS011;2362;50.780;0.292;2023-04-07T14:02:41;3.17;;;1.25;;
4696;SDS011;2362;50.780;0.292;2023-04-07T14:05:09;5.45;;;1.33;;
4696;SDS011;2362;50.780;0.292;2023-04-07T14:07:35;7.38;;;1.77;;
4696;SDS011;2362;50.780;0.292;2023-04-07T14:10:01;9.05;;;2.17;;
4696;SDS011;2362;50.780;0.292;2023-04-07T14:12:26;7.95;;;1.70;;
4696;SDS011;2362;50.780;0.292;2023-04-07T14:14:52;4.15;;;1.70;;
4696;SDS011;2362;50.780;0.292;2023-04-07T14:17:18;6.43;;;1.33;;
4696;SDS011;2362;50.780;0.292;2023-04-07T14:19:44;2.67;;;1.30;;
4696;SDS011;2362;50.780;0.292;2023-04-07T14:22:11;10.45;;;2.05;;
4696;SDS011;2362;50.780;0.292;2023-04-07T14:24:38;4.72;;;1.17;;
4696;SDS011;2362;50.780;0.292;2023-04-07T14:27:04;6.53;;;1.58;;
4696;SDS011;2362;50.780;0.292;2023-04-07T14:29:29;8.30;;;1.95;;
4696;SDS011;2362;50.780;0.292;2023-04-07T14:31:55;7.10;;;1.73;;
4696;SDS011;2362;50.780;0.292;2023-04-07T14:34:21;3.85;;;1.80;;
4696;SDS011;2362;50.780;0.292;2023-04-07T14:36:56;5.30;;;1.88;;
4696;SDS011;2362;50.780;0.292;2023-04-07T14:39:24;4.20;;;1.50;;
4696;SDS011;2362;50.780;0.292;2023-04-07T14:41:51;5.45;;;1.25;;
4696;SDS011;2362;50.780;0.292;2023-04-07T14:44:17;5.03;;;1.10;;
4696;SDS011;2362;50.780;0.292;2023-04-07T14:46:43;3.55;;;1.70;;
4696;SDS011;2362;50.780;0.292;2023-04-07T14:49:08;4.78;;;1.45;;
4696;SDS011;2362;50.780;0.292;2023-04-07T14:51:34;8.65;;;1.83;;
4696;SDS011;2362;50.780;0.292;2023-04-07T14:54:00;6.53;;;1.10;;
4696;SDS011;2362;50.780;0.292;2023-04-07T14:56:26;8.35;;;1.77;;
4696;SDS011;2362;50.780;0.292;2023-04-07T14:58:52;8.52;;;1.27;;
4696;SDS011;2362;50.780;0.292;2023-04-07T15:01:17;3.78;;;1.20;;
4696;SDS011;2362;50.780;0.292;2023-04-07T15:03:43;7.05;;;1.27;;
4696;SDS011;2362;50.780;0.292;2023-04-07T15:06:10;6.43;;;1.20;;
4696;SDS011;2362;50.780;0.292;2023-04-07T15:08:37;10.45;;;1.50;;
4696;SDS011;2362;50.780;0.292;2023-04-07T15:11:06;5.93;;;1.20;;
4696;SDS011;2362;50.780;0.292;2023-04-07T15:13:32;8.45;;;2.20;;
4696;SDS011;2362;50.780;0.292;2023-04-07T15:16:08;6.43;;;1.65;;
4696;SDS011;2362;50.780;0.292;2023-04-07T15:18:37;4.13;;;1.10;;
4696;SDS011;2362;50.780;0.292;2023-04-07T15:21:05;10.00;;;1.50;;
4696;SDS011;2362;50.780;0.292;2023-04-07T15:23:31;4.97;;;1.40;;
4696;SDS011;2362;50.780;0.292;2023-04-07T15:25:57;9.23;;;2.00;;
4696;SDS011;2362;50.780;0.292;2023-04-07T15:28:23;8.15;;;1.95;;
4696;SDS011;2362;50.780;0.292;2023-04-07T15:30:49;3.38;;;1.30;;
4696;SDS011;2362;50.780;0.292;2023-04-07T15:33:15;3.78;;;1.15;;
4696;SDS011;2362;50.780;0.292;2023-04-07T15:35:41;8.68;;;1.30;;
4696;SDS011;2362;50.780;0.292;2023-04-07T15:38:08;5.32;;;1.17;;
4696;SDS011;2362;50.780;0.292;2023-04-07T15:40:34;5.90;;;1.50;;